Terminal Aerodrome Forecast
Issued by NWS

Home | Current Version | Previous Version | Text Only | Print | Product List | Glossary Off
Versions: 1 2 3 4 5 6 7 8 9 10 11 12 13 14 15 16

000
FTUS43 KABR 182328
TAFMBG
TAF
KMBG 182328Z 1900/1924 13013KT P6SM SCT250
     FM190400 13007KT P6SM SCT200 WS020/20035KT
     FM190600 15006KT P6SM BKN150
     FM192300 12007KT P6SM BKN070=

USA.gov is the U.S. government's official web portal to all federal, state and local government web resources and services.